Flight Track Log - Related Links

Times and Time Zones

All times are in EST time to prevent confusion due to time zone crossing. See the N373LD flight status page for this flight to view local times or setup timezone preferences in your user account.

Time Position Orientation Groundspeed Altitude Reporting Facility
EST Latitude Longitude Course Direction KTS MPH feet Rate Location/Type
Mon 02:10:32 PM 46.3183 -106.0703 233° Southwest 136 157 10,600  Level Salt Lake Center
Mon 02:11:34 PM 46.2911 -106.1139 228° Southwest 139 160 11,700 1,258 Climbing Salt Lake Center
Mon 02:12:36 PM 46.2642 -106.1592 229° Southwest 145 167 13,200 1,355 Climbing Salt Lake Center
Mon 02:13:38 PM 46.2389 -106.2033 230° Southwest 144 166 14,500 1,258 Climbing Salt Lake Center
Mon 02:14:00 PM 46.1991 -106.2819 232° Southwest  Level Estimated
Mon 02:14:40 PM 46.2122 -106.2500 230° Southwest 147 169 15,800  Level Salt Lake Center
Mon 02:15:42 PM 46.1808 -106.3050 231° Southwest 148 170 17,300 1,355 Climbing Salt Lake Center
Mon 02:16:44 PM 46.1539 -106.3511 230° Southwest 149 171 18,600 1,113 Climbing Salt Lake Center
Mon 02:17:46 PM 46.1264 -106.3978 230° Southwest 151 174 19,600 677 Climbing Salt Lake Center
Mon 02:18:48 PM 46.0964 -106.4503 231° Southwest 158 182 20,000 194 Climbing Salt Lake Center
Mon 02:19:50 PM 46.0600 -106.5108 229° Southwest 179 206 20,000  Level Salt Lake Center
Mon 02:20:52 PM 46.0217 -106.5772 230° Southwest 199 229 20,000  Level Salt Lake Center
Mon 02:21:54 PM 45.9747 -106.6558 229° Southwest 210 242 20,000  Level Salt Lake Center
Mon 02:22:56 PM 45.9358 -106.7217 230° Southwest 215 247 20,000  Level Salt Lake Center
Mon 02:23:58 PM 45.8972 -106.7869 230° Southwest 215 247 20,000  Level Salt Lake Center
Mon 02:25:00 PM 45.8586 -106.8528 230° Southwest 216 249 20,000  Level Salt Lake Center
Mon 02:26:02 PM 45.8203 -106.9181 230° Southwest 215 247 20,000  Level Salt Lake Center
Mon 02:27:04 PM 45.7811 -106.9836 229° Southwest 216 249 20,000  Level Salt Lake Center
Mon 02:28:06 PM 45.7344 -107.0622 230° Southwest 216 249 20,000  Level Salt Lake Center
Mon 02:29:08 PM 45.6961 -107.1272 230° Southwest 216 249 20,000  Level Salt Lake Center
Mon 02:30:10 PM 45.6569 -107.1972 231° Southwest 223 257 20,000  Level Salt Lake Center
Mon 02:31:12 PM 45.6178 -107.2617 229° Southwest 217 250 20,000  Level Salt Lake Center
Mon 02:32:14 PM 45.5786 -107.3253 229° Southwest 215 247 20,000  Level Salt Lake Center
Mon 02:33:15 PM 45.5394 -107.3900 229° Southwest 215 247 20,000  Level Salt Lake Center
Mon 02:34:17 PM 45.4939 -107.4675 230° Southwest 214 246 20,000  Level Salt Lake Center
Mon 02:35:20 PM 45.4556 -107.5289 228° Southwest 209 241 20,000  Level Salt Lake Center
Mon 02:36:21 PM 45.4175 -107.5911 229° Southwest 209 241 20,000  Level Salt Lake Center
Mon 02:37:23 PM 45.3769 -107.6569 229° Southwest 206 237 20,000  Level Salt Lake Center
Mon 02:38:25 PM 45.3394 -107.7194 230° Southwest 210 242 20,000  Level Salt Lake Center
Mon 02:39:27 PM 45.2975 -107.7872 229° Southwest 213 245 20,000  Level Salt Lake Center
Mon 02:40:29 PM 45.2594 -107.8483 229° Southwest 211 243 20,000  Level Salt Lake Center
Mon 02:41:31 PM 45.2181 -107.9164 229° Southwest 211 243 20,000  Level Salt Lake Center
Mon 02:42:33 PM 45.1792 -107.9794 229° Southwest 216 249 20,000  Level Salt Lake Center
Mon 02:43:35 PM 45.1372 -108.0467 229° Southwest 213 245 20,000  Level Salt Lake Center
Mon 02:44:37 PM 45.0981 -108.1100 229° Southwest 216 249 20,000  Level Salt Lake Center
Mon 02:45:39 PM 45.0658 -108.1669 231° Southwest 207 238 20,000  Level Salt Lake Center
Mon 02:46:41 PM 45.0194 -108.2419 229° Southwest 210 242 20,000  Level Salt Lake Center
Mon 02:47:43 PM 44.9783 -108.3072 228° Southwest 220 253 20,000  Level Salt Lake Center
Mon 02:48:44 PM 44.9394 -108.3692 228° Southwest 217 250 20,000  Level Salt Lake Center
Mon 02:49:46 PM 44.9022 -108.4281 228° Southwest 206 237 20,000  Level Salt Lake Center
Mon 02:50:48 PM 44.8639 -108.4886 228° Southwest 207 238 20,000  Level Salt Lake Center
Mon 02:51:50 PM 44.8169 -108.5633 228° Southwest 212 244 20,000 -97 Level Salt Lake Center
Mon 02:52:52 PM 44.7778 -108.6250 228° Southwest 212 244 19,800 -829 Descending Salt Lake Center
Mon 02:53:53 PM 44.7381 -108.6875 228° Southwest 214 246 18,300 -1,475 Descending Salt Lake Center
Mon 02:55:00 PM 44.6791 -108.7407 231° Southwest  Level FlightAware Approximate
Mon 03:02:00 PM 44.5167 -109.0167 227° Southwest  Level FlightAware Approximate
Mon 03:03:00 PM 44.5202 -109.0238 227° Southwest  Level Estimated
Mon 03:04:00 PM 44.5167 -109.0167 227° Southwest  Level FlightAware Approximate
Mon 03:05:00 PM 44.5202 -109.0238 227° Southwest  Level Estimated
Mon 03:06:00 PM 44.5167 -109.0167 227° Southwest  Level FlightAware Approximate
Mon 03:07:00 PM 44.5202 -109.0238 227° Southwest  Level Estimated
Mon 03:08:00 PM 44.5167 -109.0167 227° Southwest  Level FlightAware Approximate
Mon 03:09:00 PM 44.5202 -109.0238 227° Southwest  Level Estimated
Mon 03:10:00 PM 44.5167 -109.0167 227° Southwest  Level FlightAware Approximate
Mon 03:11:00 PM 44.5202 -109.0238 227° Southwest  Level Estimated

Login

Don't have an account? Register now (free) for customized features, flight alerts, and more!